Time;durP1;ratioP1;P1;durP2;ratioP2;P2;SDS_P1;SDS_P2;PMS_P1;PMS_P2;Temp;Humidity;BMP_temperature;BMP_pressure;BME280_temperature;BME280_humidity;BME280_pressure;Samples;Min_cycle;Max_cycle;Signal;HPM_P1;HPM_P2
2021/05/25 00:00:11;;;;;;;11.18;4.25;;;;;;;10.39;91.50;100384.88;5067911;28;20032;-73
2021/05/25 00:02:41;;;;;;;12.10;5.07;;;;;;;10.42;91.31;100400.78;5030462;28;20017;-73
2021/05/25 00:05:09;;;;;;;9.90;4.10;;;;;;;10.34;91.75;100390.56;5050559;28;20107;-73
2021/05/25 00:07:35;;;;;;;9.27;3.97;;;;;;;10.27;92.37;100397.31;5048026;28;20113;-73
2021/05/25 00:10:00;;;;;;;6.72;3.70;;;;;;;10.22;92.84;100396.78;5059406;28;20520;-73
2021/05/25 00:12:26;;;;;;;10.38;4.47;;;;;;;10.26;92.40;100395.59;5060913;28;20635;-73
2021/05/25 00:14:51;;;;;;;11.32;3.95;;;;;;;10.29;92.27;100398.06;5062243;28;20044;-73
2021/05/25 00:17:17;;;;;;;10.40;4.18;;;;;;;10.25;92.66;100393.00;5060292;28;20029;-73
2021/05/25 00:19:42;;;;;;;10.95;4.22;;;;;;;10.19;93.76;100391.59;5046138;28;20496;-73
2021/05/25 00:22:08;;;;;;;11.13;5.05;;;;;;;10.23;93.05;100392.25;5061100;28;20711;-73
2021/05/25 00:24:33;;;;;;;7.63;3.95;;;;;;;10.23;94.27;100384.22;5042000;28;20133;-73
2021/05/25 00:26:59;;;;;;;10.05;2.72;;;;;;;10.15;94.75;100390.94;5042782;28;20030;-73
2021/05/25 00:29:24;;;;;;;7.30;3.20;;;;;;;10.18;94.69;100397.94;5062087;28;20643;-73
2021/05/25 00:31:50;;;;;;;8.38;3.45;;;;;;;10.20;94.14;100400.50;5046131;28;20029;-73
2021/05/25 00:34:15;;;;;;;11.80;4.40;;;;;;;10.13;94.65;100397.34;5062666;28;20028;-73
2021/05/25 00:36:41;;;;;;;10.23;4.53;;;;;;;10.19;94.37;100399.66;5060750;28;20604;-73
2021/05/25 00:39:07;;;;;;;12.63;5.40;;;;;;;10.13;94.66;100400.88;5029112;28;20403;-73
2021/05/25 00:41:34;;;;;;;11.40;5.18;;;;;;;10.16;93.71;100405.19;5059082;28;20044;-73
2021/05/25 00:44:00;;;;;;;10.82;4.65;;;;;;;10.16;93.43;100405.19;5063212;28;20041;-73
2021/05/25 00:46:25;;;;;;;14.95;5.22;;;;;;;10.06;94.35;100398.75;5066061;28;20179;-73
2021/05/25 00:48:51;;;;;;;7.63;3.90;;;;;;;10.06;94.45;100410.31;5040206;28;20546;-73
2021/05/25 00:51:17;;;;;;;8.70;4.18;;;;;;;10.04;94.48;100406.88;5070716;28;20028;-73
2021/05/25 00:53:42;;;;;;;8.10;4.10;;;;;;;10.13;93.65;100405.38;5068882;28;20089;-73
2021/05/25 00:56:08;;;;;;;7.22;3.83;;;;;;;9.99;94.22;100402.78;5047448;28;20036;-73
2021/05/25 00:58:35;;;;;;;7.95;3.78;;;;;;;9.94;94.57;100407.56;5069250;28;20028;-73
2021/05/25 01:01:01;;;;;;;6.78;3.42;;;;;;;9.90;94.45;100403.38;5051401;28;20040;-73
2021/05/25 01:03:26;;;;;;;10.40;3.45;;;;;;;9.93;93.92;100403.22;5069718;28;20029;-73
2021/05/25 01:05:51;;;;;;;11.60;3.35;;;;;;;9.98;93.50;100406.44;5069701;28;20082;-73
2021/05/25 01:08:17;;;;;;;7.78;3.08;;;;;;;9.91;93.59;100405.13;5069195;28;20035;-73
2021/05/25 01:11:20;;;;;;;3.58;1.83;;;;;;;9.85;93.43;100405.53;5067648;28;20546;-72
2021/05/25 01:13:45;;;;;;;5.60;1.90;;;;;;;9.78;93.15;100406.88;5059666;28;20166;-73
2021/05/25 01:16:10;;;;;;;3.53;1.70;;;;;;;9.72;93.81;100405.47;5055267;28;20411;-73
2021/05/25 01:18:36;;;;;;;6.45;1.20;;;;;;;9.77;93.46;100413.19;5067272;28;20044;-72
2021/05/25 01:21:05;;;;;;;8.18;1.80;;;;;;;9.67;93.49;100410.28;5051535;28;20043;-72
2021/05/25 01:23:31;;;;;;;2.20;0.85;;;;;;;9.61;93.50;100416.03;5037719;28;20068;-73
2021/05/25 01:25:57;;;;;;;1.75;0.80;;;;;;;9.67;93.53;100419.19;5049339;28;20033;-73
2021/05/25 01:28:24;;;;;;;2.75;0.80;;;;;;;9.51;93.93;100422.94;5050091;28;20024;-72
2021/05/25 01:30:52;;;;;;;3.95;1.48;;;;;;;9.54;93.60;100412.91;5046713;28;20493;-73
2021/05/25 01:33:19;;;;;;;4.68;1.42;;;;;;;9.49;93.15;100419.53;5050192;28;20033;-73
2021/05/25 01:35:45;;;;;;;1.85;1.10;;;;;;;9.53;93.22;100416.53;5069523;28;20108;-73
2021/05/25 01:38:14;;;;;;;3.83;1.27;;;;;;;9.55;93.23;100414.63;5053302;28;20035;-73
2021/05/25 01:40:40;;;;;;;3.50;1.50;;;;;;;9.43;93.72;100419.91;5049188;28;20123;-73
2021/05/25 01:43:06;;;;;;;3.95;1.65;;;;;;;9.39;93.81;100411.19;5064523;28;20079;-73
2021/05/25 01:45:33;;;;;;;2.05;1.10;;;;;;;9.36;94.10;100426.63;5049794;28;20033;-73
2021/05/25 01:48:00;;;;;;;2.35;1.15;;;;;;;9.43;93.57;100410.06;5048424;28;20028;-73
2021/05/25 01:50:27;;;;;;;1.67;0.88;;;;;;;9.45;93.37;100413.47;5068799;28;20028;-73
2021/05/25 01:52:56;;;;;;;1.27;0.65;;;;;;;9.45;93.21;100413.47;5067510;28;20481;-73
2021/05/25 01:55:30;;;;;;;1.88;0.75;;;;;;;9.36;93.25;100414.09;5047952;28;20082;-72
2021/05/25 01:57:57;;;;;;;3.13;0.80;;;;;;;9.37;93.09;100415.81;5061248;28;20040;-72
2021/05/25 02:00:23;;;;;;;2.10;0.80;;;;;;;9.35;93.39;100417.72;5063910;28;20083;-73
2021/05/25 02:02:49;;;;;;;1.05;0.70;;;;;;;9.33;92.94;100417.81;5048152;28;20333;-73
2021/05/25 02:05:14;;;;;;;2.47;0.63;;;;;;;9.26;93.17;100415.63;5065580;28;20106;-73
2021/05/25 02:07:45;;;;;;;6.07;1.35;;;;;;;9.39;92.67;100418.38;5047956;28;20120;-73
2021/05/25 02:10:21;;;;;;;1.40;0.60;;;;;;;9.27;92.63;100411.97;5031758;28;20134;-73
2021/05/25 02:12:46;;;;;;;4.60;1.15;;;;;;;9.31;92.53;100418.88;5065209;28;20035;-73
2021/05/25 02:15:12;;;;;;;2.92;0.77;;;;;;;9.24;93.13;100420.22;5064547;28;20029;-73
2021/05/25 02:17:38;;;;;;;3.22;0.93;;;;;;;9.19;93.36;100416.97;5062572;28;20024;-73
2021/05/25 02:20:04;;;;;;;2.35;0.63;;;;;;;9.23;92.97;100416.69;5032229;28;20040;-72
2021/05/25 02:22:29;;;;;;;1.17;0.60;;;;;;;9.18;93.20;100418.81;5066923;28;20110;-73
2021/05/25 02:24:54;;;;;;;2.45;0.65;;;;;;;9.20;93.17;100418.69;5043513;28;20036;-73
2021/05/25 02:27:20;;;;;;;0.95;0.50;;;;;;;9.20;93.23;100421.34;5046634;28;20032;-73
2021/05/25 02:29:45;;;;;;;5.85;0.82;;;;;;;9.16;93.59;100422.50;5067559;28;20063;-73
2021/05/25 02:32:11;;;;;;;7.95;0.70;;;;;;;9.15;94.15;100428.81;5068196;28;20490;-72
2021/05/25 02:34:36;;;;;;;1.25;0.70;;;;;;;9.14;94.46;100425.28;5068733;28;20047;-72
2021/05/25 02:37:02;;;;;;;4.32;1.48;;;;;;;9.23;92.77;100426.53;5032812;28;20821;-72
2021/05/25 02:39:27;;;;;;;2.35;0.50;;;;;;;9.18;93.34;100431.31;5053673;28;21864;-73
2021/05/25 02:41:52;;;;;;;2.80;0.50;;;;;;;9.21;93.28;100426.63;5067220;28;20064;-72
2021/05/25 02:44:18;;;;;;;1.52;0.60;;;;;;;9.29;93.47;100434.19;5067528;28;20028;-73
2021/05/25 02:46:43;;;;;;;2.45;0.50;;;;;;;9.21;93.95;100433.78;5049747;28;20028;-72
2021/05/25 02:49:09;;;;;;;4.68;0.80;;;;;;;9.23;93.88;100430.06;5067662;28;20040;-73
2021/05/25 02:51:34;;;;;;;1.30;0.50;;;;;;;9.29;93.95;100421.66;5063854;28;20032;-72
2021/05/25 02:53:59;;;;;;;1.00;0.60;;;;;;;9.34;94.44;100430.25;5032442;28;20712;-73
2021/05/25 02:56:25;;;;;;;2.47;0.63;;;;;;;9.30;94.38;100435.91;5063771;28;20043;-73
2021/05/25 02:58:51;;;;;;;1.27;0.45;;;;;;;9.29;94.01;100431.50;5063868;28;20130;-73
2021/05/25 03:01:17;;;;;;;1.67;0.40;;;;;;;9.28;94.57;100437.81;5066641;28;20541;-72
2021/05/25 03:03:42;;;;;;;1.38;0.52;;;;;;;9.26;94.89;100445.06;5037716;28;20123;-72
2021/05/25 03:06:08;;;;;;;2.35;0.60;;;;;;;9.26;95.24;100442.38;5066348;28;20039;-72
2021/05/25 03:08:33;;;;;;;4.78;1.00;;;;;;;9.26;94.73;100442.38;5050745;28;20412;-72
2021/05/25 03:10:59;;;;;;;4.68;0.50;;;;;;;9.24;95.41;100442.50;5032958;28;20122;-73
2021/05/25 03:13:24;;;;;;;0.95;0.52;;;;;;;9.26;94.82;100442.38;5067006;28;20052;-72
2021/05/25 03:15:51;;;;;;;1.40;0.50;;;;;;;9.24;95.23;100437.16;5048014;28;20111;-72
2021/05/25 03:18:17;;;;;;;1.55;0.60;;;;;;;9.32;95.28;100439.31;5065246;28;20582;-73
2021/05/25 03:20:45;;;;;;;1.20;0.50;;;;;;;9.34;94.33;100443.63;5066791;28;20139;-72
2021/05/25 03:23:11;;;;;;;5.20;0.60;;;;;;;9.36;94.66;100445.38;5052474;28;20194;-72
2021/05/25 03:25:37;;;;;;;0.90;0.50;;;;;;;9.38;94.66;100449.66;5049894;28;20385;-72
2021/05/25 03:28:04;;;;;;;1.00;0.50;;;;;;;9.32;94.64;100439.31;5049058;28;20633;-73
2021/05/25 03:30:30;;;;;;;2.72;0.43;;;;;;;9.53;94.27;100443.31;5067280;28;20351;-72
2021/05/25 03:32:57;;;;;;;0.95;0.52;;;;;;;9.40;94.55;100442.38;5063738;28;20112;-72
2021/05/25 03:35:24;;;;;;;0.95;0.60;;;;;;;9.36;95.39;100450.72;5066680;28;20123;-72
2021/05/25 03:37:51;;;;;;;1.40;0.57;;;;;;;9.51;94.48;100450.59;5065667;28;20481;-73
2021/05/25 03:40:17;;;;;;;0.88;0.68;;;;;;;9.51;94.08;100450.59;5066645;28;20150;-72
2021/05/25 03:42:47;;;;;;;1.58;0.70;;;;;;;9.41;94.71;100459.31;5047389;28;20085;-72
2021/05/25 03:45:13;;;;;;;5.78;0.90;;;;;;;9.38;94.95;100449.66;5048397;28;20037;-73
2021/05/25 03:47:39;;;;;;;4.72;1.63;;;;;;;9.53;94.47;100455.84;5047983;28;20452;-72
2021/05/25 03:50:08;;;;;;;2.05;1.00;;;;;;;9.54;94.63;100455.78;5046723;28;20040;-73
2021/05/25 03:52:39;;;;;;;3.45;1.27;;;;;;;9.42;94.89;100456.56;5052903;28;20044;-72
2021/05/25 03:55:10;;;;;;;2.22;1.20;;;;;;;9.49;95.42;100457.03;5049332;28;20078;-73
2021/05/25 04:00:05;;;;;;;5.45;1.80;;;;;;;9.43;96.34;100455.59;5063079;28;20381;-72
2021/05/25 04:02:32;;;;;;;3.20;1.42;;;;;;;9.49;96.15;100455.22;5045515;28;20102;-72
2021/05/25 04:04:57;;;;;;;6.72;2.78;;;;;;;9.47;96.48;100451.75;5042653;28;20037;-72
2021/05/25 04:07:23;;;;;;;3.38;1.50;;;;;;;9.46;95.80;100452.72;5062044;28;20016;-72
2021/05/25 04:09:48;;;;;;;3.00;1.73;;;;;;;9.52;95.88;100455.00;5066849;28;20527;-73
2021/05/25 04:12:14;;;;;;;8.15;2.42;;;;;;;9.46;96.69;100463.44;5049691;28;20032;-72
2021/05/25 04:14:39;;;;;;;4.68;1.90;;;;;;;9.46;97.18;100458.06;5030494;28;20050;-73
2021/05/25 04:17:05;;;;;;;2.47;1.50;;;;;;;9.56;97.05;100461.91;5047290;28;20711;-72
2021/05/25 04:19:30;;;;;;;3.70;1.50;;;;;;;9.49;97.79;100457.88;5048334;28;20116;-72
2021/05/25 04:21:55;;;;;;;3.03;1.80;;;;;;;9.53;98.44;100459.41;5064507;28;20519;-72
2021/05/25 04:24:21;;;;;;;4.05;1.88;;;;;;;9.51;98.15;100455.94;5031722;28;20086;-73
2021/05/25 04:26:46;;;;;;;5.88;1.50;;;;;;;9.55;98.44;100462.84;5063665;28;20036;-72
2021/05/25 04:29:12;;;;;;;2.78;1.70;;;;;;;9.62;98.98;100461.50;5066232;28;20039;-73
2021/05/25 04:31:37;;;;;;;1.83;1.20;;;;;;;9.66;100.00;100464.84;5053824;28;20388;-73
2021/05/25 04:34:03;;;;;;;2.45;1.45;;;;;;;9.57;100.00;100470.75;5050768;28;20032;-73
2021/05/25 04:36:29;;;;;;;2.20;1.35;;;;;;;9.57;100.00;100463.59;5030756;28;20044;-72
2021/05/25 04:38:54;;;;;;;3.50;1.25;;;;;;;9.64;100.00;100472.97;5063780;28;20063;-72
2021/05/25 04:41:19;;;;;;;3.33;1.10;;;;;;;9.63;100.00;100476.59;5063576;28;20087;-73
2021/05/25 04:43:45;;;;;;;4.20;1.48;;;;;;;9.60;100.00;100470.59;5051056;28;20032;-74
2021/05/25 04:46:10;;;;;;;1.92;1.48;;;;;;;9.57;100.00;100471.63;5065134;28;20036;-73
2021/05/25 04:48:36;;;;;;;2.85;1.63;;;;;;;9.52;100.00;100468.38;5048929;28;20032;-73
2021/05/25 04:51:02;;;;;;;3.55;1.50;;;;;;;9.59;100.00;100468.88;5046508;28;20036;-73
2021/05/25 04:53:27;;;;;;;4.00;1.30;;;;;;;9.55;100.00;100470.03;5062803;28;20028;-72
2021/05/25 04:55:53;;;;;;;4.30;1.45;;;;;;;9.49;100.00;100468.59;5059155;28;20163;-73
2021/05/25 04:58:18;;;;;;;1.33;1.08;;;;;;;9.53;100.00;100474.63;5059395;28;20075;-72
2021/05/25 05:00:44;;;;;;;4.38;1.10;;;;;;;9.49;100.00;100476.63;5056258;28;20036;-73
2021/05/25 05:03:10;;;;;;;2.42;1.00;;;;;;;9.49;100.00;100484.69;5045094;28;20132;-73
2021/05/25 05:05:35;;;;;;;2.80;0.90;;;;;;;9.50;100.00;100481.03;5062111;28;20112;-73
2021/05/25 05:08:01;;;;;;;4.20;1.17;;;;;;;9.47;100.00;100475.88;5062354;28;20035;-73
2021/05/25 05:10:26;;;;;;;1.58;0.80;;;;;;;9.42;100.00;100482.47;5046111;28;20070;-73
2021/05/25 05:12:52;;;;;;;2.83;1.00;;;;;;;9.42;100.00;100474.44;5062123;28;20044;-73
2021/05/25 05:15:18;;;;;;;3.05;0.90;;;;;;;9.38;100.00;100481.78;5045003;28;20463;-72
2021/05/25 05:17:45;;;;;;;2.03;1.10;;;;;;;9.46;100.00;100468.78;5062327;28;20320;-72
2021/05/25 05:20:11;;;;;;;2.40;1.10;;;;;;;9.52;100.00;100472.88;5024054;28;20063;-73
2021/05/25 05:22:38;;;;;;;2.03;1.42;;;;;;;9.52;100.00;100486.28;5045398;28;20024;-72
2021/05/25 05:25:05;;;;;;;2.65;1.23;;;;;;;9.50;100.00;100478.38;5061460;28;20510;-73
2021/05/25 05:27:30;;;;;;;3.33;1.27;;;;;;;9.60;100.00;100482.16;5043793;28;20021;-73
2021/05/25 05:29:56;;;;;;;4.32;1.38;;;;;;;9.72;100.00;100481.38;5063257;28;20152;-73
2021/05/25 05:32:21;;;;;;;3.85;2.00;;;;;;;9.91;100.00;100490.91;5041571;28;20044;-72
2021/05/25 05:34:47;;;;;;;9.02;2.25;;;;;;;10.16;100.00;100491.03;5065168;28;20028;-74
2021/05/25 05:37:12;;;;;;;3.85;1.50;;;;;;;10.26;100.00;100485.91;5065532;28;20024;-73
2021/05/25 05:39:39;;;;;;;4.40;1.73;;;;;;;10.17;100.00;100486.56;5067216;28;20536;-73
2021/05/25 05:42:04;;;;;;;5.03;1.38;;;;;;;10.10;100.00;100491.44;5065242;28;20260;-73
2021/05/25 05:44:30;;;;;;;5.00;1.40;;;;;;;10.01;100.00;100486.66;5053235;28;20280;-73
2021/05/25 05:46:56;;;;;;;7.57;1.50;;;;;;;9.99;100.00;100493.97;5063665;28;20608;-73
2021/05/25 05:49:23;;;;;;;4.03;0.90;;;;;;;9.96;100.00;100489.66;5066769;28;20040;-72
2021/05/25 05:51:49;;;;;;;2.53;0.95;;;;;;;9.98;100.00;100489.56;5030914;28;20834;-74
2021/05/25 05:54:16;;;;;;;6.15;1.10;;;;;;;9.84;100.00;100492.25;5052584;28;20405;-74
2021/05/25 05:56:41;;;;;;;3.20;1.05;;;;;;;9.86;100.00;100493.03;5035089;28;20031;-74
2021/05/25 05:59:07;;;;;;;2.55;0.80;;;;;;;9.73;100.00;100503.69;5033208;28;20032;-73
2021/05/25 06:01:33;;;;;;;1.92;1.08;;;;;;;9.60;100.00;100486.66;5067090;28;20033;-73
2021/05/25 06:03:58;;;;;;;1.17;0.80;;;;;;;9.52;100.00;100492.50;5069653;28;20036;-73
2021/05/25 06:06:24;;;;;;;1.65;0.77;;;;;;;9.55;100.00;100495.00;5067861;28;20082;-73
2021/05/25 06:08:49;;;;;;;5.80;1.00;;;;;;;9.58;100.00;100494.78;5039065;28;20127;-73
2021/05/25 06:11:15;;;;;;;3.45;1.20;;;;;;;9.56;100.00;100496.72;5049321;28;20083;-73
2021/05/25 06:13:40;;;;;;;2.47;1.20;;;;;;;9.62;100.00;100496.34;5034346;28;20059;-73
2021/05/25 06:16:07;;;;;;;3.92;1.38;;;;;;;9.63;100.00;100498.03;5029570;28;20072;-73
2021/05/25 06:18:34;;;;;;;5.13;2.08;;;;;;;9.64;100.00;100505.13;5046756;28;20437;-73
2021/05/25 06:21:01;;;;;;;2.95;1.20;;;;;;;9.74;100.00;100506.28;5051366;28;20562;-73
2021/05/25 06:23:28;;;;;;;3.28;1.10;;;;;;;9.88;100.00;100501.81;5041711;28;20031;-73
2021/05/25 06:25:53;;;;;;;3.13;1.00;;;;;;;9.99;100.00;100500.19;5041991;28;20094;-73
2021/05/25 06:28:19;;;;;;;3.40;1.65;;;;;;;10.05;100.00;100505.16;5050781;28;20044;-73
2021/05/25 06:30:45;;;;;;;3.25;1.20;;;;;;;9.93;100.00;100497.91;5050862;28;20132;-74
2021/05/25 06:33:11;;;;;;;4.00;1.10;;;;;;;10.00;100.00;100506.38;5063494;28;20538;-74
2021/05/25 06:35:36;;;;;;;1.27;0.80;;;;;;;9.99;100.00;100510.03;5044944;28;20425;-74
2021/05/25 06:38:03;;;;;;;1.27;0.90;;;;;;;9.90;100.00;100499.91;5036261;28;20048;-73
2021/05/25 06:40:29;;;;;;;4.90;0.88;;;;;;;9.81;100.00;100500.50;5035231;28;20531;-72
2021/05/25 06:42:54;;;;;;;0.73;0.68;;;;;;;9.78;100.00;100506.06;5033285;28;20074;-74
2021/05/25 06:45:21;;;;;;;1.75;0.70;;;;;;;9.88;100.00;100504.50;5051585;28;20095;-74
2021/05/25 06:47:47;;;;;;;3.50;0.93;;;;;;;9.98;100.00;100519.03;5037370;28;20051;-74
2021/05/25 06:50:14;;;;;;;3.53;0.80;;;;;;;10.11;100.00;100523.50;5054016;28;20070;-75
2021/05/25 06:52:43;;;;;;;2.78;0.77;;;;;;;10.20;100.00;100524.75;5052791;28;20032;-75
2021/05/25 06:55:11;;;;;;;10.18;3.05;;;;;;;10.26;100.00;100528.84;5049445;28;20036;-75
2021/05/25 06:57:36;;;;;;;4.25;0.93;;;;;;;10.21;100.00;100542.56;5030949;28;20021;-75
2021/05/25 07:00:04;;;;;;;3.78;1.10;;;;;;;10.37;100.00;100545.94;5047210;28;20456;-75
2021/05/25 07:02:30;;;;;;;1.17;0.90;;;;;;;10.40;100.00;100548.44;5049913;28;20036;-74
2021/05/25 07:04:56;;;;;;;2.70;0.88;;;;;;;10.47;100.00;100549.75;5068278;28;20036;-75
2021/05/25 07:07:22;;;;;;;2.67;0.80;;;;;;;10.59;100.00;100547.22;5051012;28;20496;-74
2021/05/25 07:09:48;;;;;;;1.20;1.00;;;;;;;10.77;100.00;100545.97;5051755;28;20098;-75
2021/05/25 07:12:14;;;;;;;0.95;0.70;;;;;;;11.20;100.00;100560.88;5051089;28;20119;-74
2021/05/25 07:14:40;;;;;;;1.30;1.00;;;;;;;11.26;100.00;100556.88;5049803;28;20107;-75
2021/05/25 07:17:06;;;;;;;3.13;1.23;;;;;;;11.40;100.00;100555.94;5034518;28;20036;-75
2021/05/25 07:19:32;;;;;;;1.30;0.80;;;;;;;11.55;100.00;100558.38;5030961;28;20192;-75
2021/05/25 07:21:57;;;;;;;1.40;0.77;;;;;;;11.89;100.00;100570.31;5048669;28;20036;-75
2021/05/25 07:24:23;;;;;;;4.00;1.20;;;;;;;12.03;100.00;100554.06;5049560;28;20384;-75
2021/05/25 07:26:49;;;;;;;2.88;0.75;;;;;;;12.66;99.14;100561.00;5032719;28;20029;-75
2021/05/25 07:29:15;;;;;;;2.33;1.00;;;;;;;13.57;95.47;100570.09;5033623;28;20032;-74
2021/05/25 07:31:41;;;;;;;1.83;0.85;;;;;;;13.81;88.64;100561.03;5041152;28;20485;-75
2021/05/25 07:34:06;;;;;;;1.00;0.60;;;;;;;13.65;86.20;100573.03;5023299;28;20057;-75
2021/05/25 07:36:32;;;;;;;0.88;0.50;;;;;;;13.04;88.15;100579.63;5046751;28;20028;-75
2021/05/25 07:38:57;;;;;;;1.05;0.50;;;;;;;12.84;92.47;100575.75;5029855;28;20047;-74
2021/05/25 07:41:23;;;;;;;1.25;0.68;;;;;;;12.52;90.88;100588.97;5066476;28;20044;-75
2021/05/25 07:43:49;;;;;;;1.50;0.73;;;;;;;12.19;91.53;100587.91;5048633;28;20028;-75
2021/05/25 07:46:16;;;;;;;1.05;0.70;;;;;;;12.05;92.29;100595.13;5047655;28;20044;-75
2021/05/25 07:48:42;;;;;;;1.13;1.02;;;;;;;12.09;94.07;100593.09;5064210;28;20044;-74
2021/05/25 07:51:07;;;;;;;3.78;0.90;;;;;;;12.24;93.86;100601.88;5063678;28;20032;-75
2021/05/25 07:53:33;;;;;;;1.15;1.05;;;;;;;12.09;91.68;100620.00;5035184;28;20024;-75
2021/05/25 07:55:59;;;;;;;1.65;0.70;;;;;;;12.13;94.55;100611.59;5038572;28;20184;-75
2021/05/25 07:58:24;;;;;;;1.73;1.05;;;;;;;12.01;93.40;100617.84;5032955;28;20105;-75
2021/05/25 08:00:51;;;;;;;2.17;0.98;;;;;;;11.85;94.36;100611.00;5047037;28;20033;-75
2021/05/25 08:03:18;;;;;;;1.55;0.80;;;;;;;11.95;93.04;100623.69;5031829;28;20044;-75
2021/05/25 08:05:43;;;;;;;1.52;1.00;;;;;;;11.92;93.92;100629.25;5065426;28;20032;-75
2021/05/25 08:08:09;;;;;;;1.95;1.05;;;;;;;12.13;90.60;100622.34;5063813;28;20036;-75
2021/05/25 08:10:35;;;;;;;1.75;1.40;;;;;;;12.26;92.22;100626.84;5031481;28;20167;-75
2021/05/25 08:13:02;;;;;;;3.22;1.60;;;;;;;12.30;91.20;100629.19;5046472;28;20386;-74
2021/05/25 08:15:29;;;;;;;2.78;1.33;;;;;;;12.32;93.39;100642.53;5041024;28;20090;-75
2021/05/25 08:18:03;;;;;;;1.98;1.42;;;;;;;12.34;91.86;100636.09;5047771;28;20175;-75
2021/05/25 08:20:29;;;;;;;3.22;1.85;;;;;;;12.32;92.24;100648.78;5049180;28;20036;-75
2021/05/25 08:22:56;;;;;;;2.08;1.35;;;;;;;12.44;92.54;100633.56;5066534;28;20086;-75
2021/05/25 08:25:27;;;;;;;4.30;1.15;;;;;;;12.83;92.11;100638.72;5065652;28;20028;-74
2021/05/25 08:27:54;;;;;;;2.38;1.08;;;;;;;13.14;89.84;100641.81;5048117;28;20481;-75
2021/05/25 08:30:24;;;;;;;1.15;1.05;;;;;;;13.19;89.96;100647.72;5063843;28;20031;-74
2021/05/25 08:32:51;;;;;;;1.80;1.45;;;;;;;13.23;89.56;100647.34;5053459;28;20037;-75
2021/05/25 08:35:18;;;;;;;1.85;1.30;;;;;;;13.32;88.56;100645.78;5049825;28;20079;-75
2021/05/25 08:37:48;;;;;;;4.43;1.63;;;;;;;13.39;88.07;100656.97;5050108;28;20036;-75
2021/05/25 08:40:14;;;;;;;2.03;1.70;;;;;;;13.36;86.95;100666.13;5047587;28;20075;-75
2021/05/25 08:42:39;;;;;;;1.90;1.38;;;;;;;13.40;86.10;100653.28;5042693;28;20064;-75
2021/05/25 08:45:07;;;;;;;2.25;1.50;;;;;;;13.69;85.50;100659.97;5051352;28;20379;-75
2021/05/25 08:47:35;;;;;;;2.65;1.63;;;;;;;14.29;84.03;100659.63;5042406;28;20040;-76
2021/05/25 08:50:02;;;;;;;3.00;1.80;;;;;;;14.91;80.17;100673.44;5066388;28;20071;-75
2021/05/25 08:52:28;;;;;;;3.22;1.30;;;;;;;15.31;80.35;100675.47;5037110;28;20028;-75
2021/05/25 08:54:53;;;;;;;1.95;1.23;;;;;;;15.44;78.12;100673.47;5036321;28;20054;-75
2021/05/25 08:57:19;;;;;;;1.52;1.42;;;;;;;15.20;78.18;100683.66;5066422;28;20372;-75
2021/05/25 08:59:44;;;;;;;4.75;1.70;;;;;;;14.62;79.92;100684.94;5033911;28;20036;-75
2021/05/25 09:02:14;;;;;;;4.45;1.83;;;;;;;14.40;79.92;100677.69;5062820;28;20451;-75
2021/05/25 09:05:18;;;;;;;3.58;1.60;;;;;;;14.38;80.05;100685.91;5046980;28;20501;-75
2021/05/25 09:07:46;;;;;;;8.13;2.15;;;;;;;14.85;81.42;100678.50;5020343;28;20496;-75
2021/05/25 09:10:22;;;;;;;3.35;1.65;;;;;;;15.11;78.91;100674.50;5063238;28;20392;-75
2021/05/25 09:12:52;;;;;;;9.07;2.20;;;;;;;15.24;78.59;100683.28;5041259;28;20037;-75
2021/05/25 09:15:40;;;;;;;1.88;1.50;;;;;;;15.26;75.95;100681.28;5048958;28;20263;-75
2021/05/25 09:18:14;;;;;;;2.90;1.63;;;;;;;14.92;77.97;100666.19;5050812;28;20530;-76
2021/05/25 09:20:46;;;;;;;3.50;1.40;;;;;;;14.69;76.83;100656.44;5053021;28;20032;-75
2021/05/25 09:23:18;;;;;;;3.92;1.70;;;;;;;14.48;79.68;100684.22;5070784;28;20048;-76
2021/05/25 09:26:05;;;;;;;2.22;1.42;;;;;;;14.08;84.84;100677.53;5045744;28;20028;-75
2021/05/25 09:28:31;;;;;;;3.60;2.10;;;;;;;13.72;90.56;100687.56;5037905;28;20043;-74
2021/05/25 09:30:56;;;;;;;9.02;3.10;;;;;;;13.63;92.76;100688.28;5035763;28;20031;-75
2021/05/25 09:33:22;;;;;;;4.75;1.83;;;;;;;14.00;91.95;100696.22;5048094;28;20032;-75
2021/05/25 09:35:49;;;;;;;6.28;1.58;;;;;;;14.06;91.73;100704.69;5067156;28;20029;-75
2021/05/25 09:38:18;;;;;;;6.32;1.55;;;;;;;14.15;89.03;100703.06;5050158;28;21537;-74
2021/05/25 09:40:49;;;;;;;4.10;1.48;;;;;;;13.92;88.89;100693.25;5063645;28;20028;-74
2021/05/25 09:43:21;;;;;;;11.52;3.53;;;;;;;13.74;90.25;100709.91;5032912;28;20507;-75
2021/05/25 09:46:08;;;;;;;5.00;2.20;;;;;;;13.81;92.13;100723.78;5043135;28;20032;-74
2021/05/25 09:48:43;;;;;;;3.42;1.42;;;;;;;13.66;92.82;100728.50;5069020;28;20067;-75
2021/05/25 09:51:32;;;;;;;1.73;1.20;;;;;;;13.83;90.64;100732.59;5054148;28;20029;-76
2021/05/25 09:53:58;;;;;;;6.88;1.48;;;;;;;13.94;92.36;100718.28;5039319;28;20470;-75
2021/05/25 09:56:28;;;;;;;2.17;1.00;;;;;;;14.03;85.75;100728.34;5058871;28;20036;-75
2021/05/25 09:58:56;;;;;;;1.55;1.40;;;;;;;14.32;89.53;100736.84;5066970;28;20047;-75
2021/05/25 10:01:37;;;;;;;2.67;1.42;;;;;;;14.47;86.38;100728.41;5073252;28;20107;-75
2021/05/25 10:04:14;;;;;;;3.70;1.67;;;;;;;14.92;90.22;100733.75;5033623;28;20043;-75
2021/05/25 10:06:45;;;;;;;2.65;1.88;;;;;;;14.93;87.31;100733.66;5050465;28;20032;-76
2021/05/25 10:09:11;;;;;;;4.47;2.22;;;;;;;14.84;86.86;100745.19;5065834;28;20036;-75
2021/05/25 10:11:41;;;;;;;5.97;2.30;;;;;;;14.58;88.35;100746.44;5049825;28;20453;-75
2021/05/25 10:14:09;;;;;;;7.28;2.50;;;;;;;14.44;89.16;100754.81;5066536;28;20527;-75
2021/05/25 10:16:38;;;;;;;5.20;2.30;;;;;;;14.42;88.16;100756.75;5064835;28;20032;-75
2021/05/25 10:21:43;;;;;;;5.28;2.33;;;;;;;14.73;83.71;100749.75;5065020;28;20032;-75
2021/05/25 10:24:08;;;;;;;3.58;2.33;;;;;;;14.96;86.27;100763.09;5052062;28;20400;-76
2021/05/25 10:26:35;;;;;;;4.65;2.35;;;;;;;15.12;84.52;100754.59;5049031;28;20093;-76
2021/05/25 10:29:05;;;;;;;4.15;1.83;;;;;;;14.34;79.44;100776.22;5058665;28;20036;-75
2021/05/25 10:31:36;;;;;;;4.47;2.03;;;;;;;13.66;86.50;100786.97;5069368;28;20039;-75
2021/05/25 10:34:22;;;;;;;4.30;2.05;;;;;;;13.35;89.59;100785.72;5063779;28;20334;-75
2021/05/25 10:36:57;;;;;;;5.63;2.17;;;;;;;13.29;92.90;100802.38;5033213;28;20051;-75
2021/05/25 10:39:33;;;;;;;3.67;2.00;;;;;;;12.95;92.61;100804.81;5052148;28;20067;-75
2021/05/25 10:42:17;;;;;;;5.32;2.20;;;;;;;12.84;90.66;100799.34;5047698;28;20045;-75
2021/05/25 10:45:21;;;;;;;6.47;2.67;;;;;;;12.64;93.90;100809.84;5067406;28;20029;-73
2021/05/25 10:48:06;;;;;;;6.63;2.58;;;;;;;12.60;97.23;100797.53;5058613;28;20043;-74
2021/05/25 10:50:37;;;;;;;5.85;2.63;;;;;;;12.62;98.10;100799.16;5069493;28;20074;-75
2021/05/25 10:53:08;;;;;;;6.15;2.50;;;;;;;12.65;96.52;100796.28;5058012;28;20044;-75
2021/05/25 10:55:35;;;;;;;4.43;2.30;;;;;;;12.93;98.27;100787.03;5046464;28;20037;-75
2021/05/25 10:58:28;;;;;;;6.60;2.20;;;;;;;12.80;95.57;100789.75;5031549;28;20436;-74
2021/05/25 11:00:54;;;;;;;6.30;2.20;;;;;;;13.03;97.83;100789.91;5053473;28;20035;-74
2021/05/25 11:03:21;;;;;;;10.15;2.53;;;;;;;13.15;96.12;100794.44;5047990;28;20051;-75
2021/05/25 11:05:56;;;;;;;3.97;2.38;;;;;;;13.36;95.13;100788.31;5062077;28;20025;-75
2021/05/25 11:08:25;;;;;;;9.98;3.35;;;;;;;13.56;97.21;100789.53;5048274;28;20311;-76
2021/05/25 11:10:54;;;;;;;4.72;2.92;;;;;;;13.86;95.73;100793.56;5065680;28;20028;-75
2021/05/25 11:13:28;;;;;;;9.75;2.97;;;;;;;14.24;95.16;100788.75;5051216;28;20039;-75
2021/05/25 11:16:22;;;;;;;6.82;3.45;;;;;;;14.54;93.16;100796.31;5029700;28;20062;-75
2021/05/25 11:24:47;;;;;;;9.25;3.45;;;;;;;15.37;92.03;100781.31;5052106;28;20094;-75
2021/05/25 11:27:46;;;;;;;7.68;3.33;;;;;;;15.75;92.10;100778.13;5023692;28;20094;-75
2021/05/25 11:30:21;;;;;;;7.88;3.75;;;;;;;15.96;87.51;100774.59;5049639;28;20063;-75
2021/05/25 11:32:47;;;;;;;13.32;3.95;;;;;;;16.02;85.06;100777.63;5051284;28;20674;-75
2021/05/25 11:35:21;;;;;;;11.07;3.90;;;;;;;16.09;85.61;100775.25;5050639;28;20784;-75
2021/05/25 11:37:51;;;;;;;5.93;3.50;;;;;;;16.17;83.89;100768.16;5062466;28;20041;-75
2021/05/25 11:40:19;;;;;;;8.65;3.22;;;;;;;16.12;81.77;100781.25;5048105;28;20063;-75